Time;durP1;ratioP1;P1;durP2;ratioP2;P2;SDS_P1;SDS_P2;PMS_P1;PMS_P2;Temp;Humidity;BMP_temperature;BMP_pressure;BME280_temperature;BME280_humidity;BME280_pressure;Samples;Min_cycle;Max_cycle;Signal;HPM_P1;HPM_P2
2021/12/04 00:00:14;;;;;;;21.92;6.80;;;1.60;99.90;;;;;;4949910;29;20031;-59
2021/12/04 00:02:40;;;;;;;14.65;5.47;;;1.60;99.90;;;;;;4949540;29;20035;-59
2021/12/04 00:05:07;;;;;;;12.25;4.80;;;1.60;99.90;;;;;;4948864;29;20464;-59
2021/12/04 00:07:36;;;;;;;11.65;4.68;;;1.60;99.90;;;;;;4949131;29;20039;-59
2021/12/04 00:10:03;;;;;;;34.67;10.75;;;1.60;99.90;;;;;;4950451;29;20038;-59
2021/12/04 00:12:31;;;;;;;18.67;5.85;;;1.60;99.90;;;;;;4949953;29;20027;-60
2021/12/04 00:14:57;;;;;;;21.30;6.72;;;1.60;99.90;;;;;;4950937;29;20079;-59
2021/12/04 00:17:24;;;;;;;23.05;7.68;;;1.60;99.90;;;;;;4949454;28;20097;-59
2021/12/04 00:19:50;;;;;;;61.58;17.23;;;1.50;99.90;;;;;;4950323;29;20035;-59
2021/12/04 00:22:15;;;;;;;41.97;12.25;;;1.60;99.90;;;;;;4950569;29;20035;-59
2021/12/04 00:24:41;;;;;;;66.78;17.02;;;1.60;99.90;;;;;;4949216;29;20027;-59
2021/12/04 00:27:07;;;;;;;18.98;6.32;;;1.60;99.90;;;;;;4949568;29;20400;-59
2021/12/04 00:29:33;;;;;;;20.65;7.40;;;1.60;99.90;;;;;;4949883;29;20035;-59
2021/12/04 00:32:02;;;;;;;18.58;7.45;;;1.60;99.90;;;;;;4949122;29;20035;-59
2021/12/04 00:34:30;;;;;;;19.90;8.13;;;1.60;99.90;;;;;;4948280;29;20646;-59
2021/12/04 00:50:21;;;;;;;17.70;7.35;;;1.60;99.90;;;;;;4949619;29;20038;-60
2021/12/04 00:52:47;;;;;;;15.77;5.93;;;1.70;99.90;;;;;;4949736;29;20741;-59
2021/12/04 00:55:13;;;;;;;15.00;6.38;;;1.70;99.90;;;;;;4949731;28;20047;-59
2021/12/04 00:57:39;;;;;;;12.70;5.78;;;1.70;99.90;;;;;;4953051;29;20039;-59
2021/12/04 01:00:06;;;;;;;11.48;5.20;;;1.70;99.90;;;;;;4954216;29;20413;-59
2021/12/04 01:02:33;;;;;;;11.07;5.00;;;1.80;99.90;;;;;;4952623;29;20043;-60
2021/12/04 01:04:59;;;;;;;14.73;5.50;;;1.90;99.90;;;;;;4952486;29;20451;-59
2021/12/04 01:07:27;;;;;;;13.25;6.15;;;1.90;99.90;;;;;;4952981;29;20110;-60
2021/12/04 01:09:53;;;;;;;14.85;6.28;;;1.90;99.90;;;;;;4953241;29;20073;-59
2021/12/04 01:12:19;;;;;;;12.68;5.57;;;1.90;99.90;;;;;;4952788;29;20109;-60
2021/12/04 01:14:45;;;;;;;11.32;5.05;;;1.90;99.90;;;;;;4953455;29;20114;-59
2021/12/04 01:17:11;;;;;;;12.75;5.20;;;1.80;99.90;;;;;;4951981;29;20102;-59
2021/12/04 01:19:37;;;;;;;15.48;6.40;;;1.80;99.90;;;;;;4952054;29;20039;-60
2021/12/04 01:22:04;;;;;;;17.50;6.13;;;1.80;99.90;;;;;;4953514;29;20046;-59
2021/12/04 01:24:30;;;;;;;16.23;5.80;;;1.80;99.90;;;;;;4951909;29;20127;-60
2021/12/04 01:26:56;;;;;;;15.85;5.55;;;1.80;99.90;;;;;;4952743;29;20071;-59
2021/12/04 01:29:22;;;;;;;13.90;5.90;;;1.80;99.90;;;;;;4952679;29;20039;-60
2021/12/04 01:31:48;;;;;;;14.20;5.80;;;1.80;99.90;;;;;;4952314;29;20038;-59
2021/12/04 01:34:14;;;;;;;13.95;5.22;;;1.80;99.90;;;;;;4952480;29;20053;-59
2021/12/04 01:36:40;;;;;;;11.80;4.78;;;1.90;99.90;;;;;;4951138;29;20027;-59
2021/12/04 01:39:08;;;;;;;14.77;5.63;;;1.90;99.90;;;;;;4952916;29;20073;-59
2021/12/04 01:41:34;;;;;;;14.57;5.15;;;1.90;99.90;;;;;;4951732;29;20122;-60
2021/12/04 01:44:03;;;;;;;13.85;5.63;;;1.90;99.90;;;;;;4953004;29;20028;-59
2021/12/04 01:46:29;;;;;;;14.00;5.43;;;1.90;99.90;;;;;;4952151;29;20407;-59
2021/12/04 01:48:55;;;;;;;17.30;6.50;;;1.90;99.90;;;;;;4952769;29;20150;-59
2021/12/04 01:51:22;;;;;;;19.02;6.00;;;1.90;99.90;;;;;;4953095;29;20114;-59
2021/12/04 01:53:48;;;;;;;13.70;6.32;;;1.90;99.90;;;;;;4952101;29;20050;-59
2021/12/04 01:56:15;;;;;;;13.23;5.05;;;1.90;99.90;;;;;;4952512;29;20031;-59
2021/12/04 01:58:42;;;;;;;13.20;5.85;;;1.90;99.90;;;;;;4951244;29;20472;-59
2021/12/04 02:01:09;;;;;;;13.40;5.25;;;1.90;99.90;;;;;;4952631;29;20122;-59
2021/12/04 02:03:35;;;;;;;14.77;6.20;;;1.90;99.90;;;;;;4951217;29;20045;-60
2021/12/04 02:06:01;;;;;;;15.13;5.88;;;1.90;99.90;;;;;;4952276;28;20059;-59
2021/12/04 02:08:27;;;;;;;15.82;5.55;;;1.90;99.90;;;;;;4934040;29;20535;-60
2021/12/04 02:10:57;;;;;;;13.05;5.43;;;1.90;99.90;;;;;;4951562;29;20154;-60
2021/12/04 02:13:24;;;;;;;;;;;1.80;99.90;;;;;;4952845;29;20039;-60
2021/12/04 02:15:50;;;;;;;13.95;5.10;;;1.80;99.90;;;;;;4950319;29;19918;-59
2021/12/04 02:18:18;;;;;;;13.15;5.72;;;1.80;99.90;;;;;;4951720;29;20031;-60
2021/12/04 02:20:44;;;;;;;14.93;5.13;;;1.80;99.90;;;;;;4951134;29;20039;-59
2021/12/04 02:23:10;;;;;;;15.80;6.03;;;1.80;99.90;;;;;;4951370;29;20038;-59
2021/12/04 02:25:37;;;;;;;14.23;5.53;;;1.80;99.90;;;;;;4950825;29;20071;-59
2021/12/04 02:28:05;;;;;;;15.00;5.75;;;1.80;99.90;;;;;;4952024;29;20046;-60
2021/12/04 02:30:35;;;;;;;12.52;4.90;;;1.80;99.90;;;;;;4950946;29;20393;-60
2021/12/04 02:33:11;;;;;;;12.07;5.03;;;1.90;99.90;;;;;;4951891;29;20042;-60
2021/12/04 02:35:48;;;;;;;13.70;6.03;;;1.90;99.90;;;;;;4950102;29;20159;-60
2021/12/04 02:38:15;;;;;;;13.35;5.75;;;1.90;99.90;;;;;;4952059;29;20377;-60
2021/12/04 02:40:43;;;;;;;14.57;6.00;;;1.80;99.90;;;;;;4950681;28;20032;-59
2021/12/04 02:43:10;;;;;;;16.23;6.25;;;1.80;99.90;;;;;;4951794;29;20027;-60
2021/12/04 02:45:36;;;;;;;14.80;6.32;;;1.80;99.90;;;;;;4949452;29;20040;-59
2021/12/04 02:48:01;;;;;;;13.88;5.78;;;1.80;99.90;;;;;;4951151;29;20094;-59
2021/12/04 02:50:27;;;;;;;16.05;6.45;;;1.70;99.90;;;;;;4950849;29;20043;-60
2021/12/04 02:52:53;;;;;;;13.60;6.22;;;1.60;99.90;;;;;;4951385;29;20039;-59
2021/12/04 02:55:19;;;;;;;15.20;6.28;;;1.60;99.90;;;;;;4950808;29;20476;-59
2021/12/04 02:57:46;;;;;;;15.70;6.38;;;1.50;99.90;;;;;;4949194;29;20043;-59
2021/12/04 03:00:21;;;;;;;15.57;6.40;;;1.50;99.90;;;;;;4951709;29;20039;-59
2021/12/04 03:02:47;;;;;;;17.02;6.57;;;1.50;99.90;;;;;;4950819;29;20027;-59
2021/12/04 03:05:13;;;;;;;14.07;5.45;;;1.50;99.90;;;;;;4951553;29;20043;-60
2021/12/04 03:07:39;;;;;;;18.65;6.70;;;1.60;99.90;;;;;;4949908;29;20110;-59
2021/12/04 03:10:08;;;;;;;14.23;6.00;;;1.60;99.90;;;;;;4950851;29;20027;-59
2021/12/04 03:12:35;;;;;;;13.45;5.47;;;1.60;99.90;;;;;;4950225;29;20472;-59
2021/12/04 03:15:01;;;;;;;14.98;5.97;;;1.60;99.90;;;;;;4951506;29;20117;-59
2021/12/04 03:17:27;;;;;;;14.32;5.45;;;1.60;99.90;;;;;;4950807;29;20114;-59
2021/12/04 03:19:53;;;;;;;14.32;5.80;;;1.60;99.90;;;;;;4949890;28;20126;-59
2021/12/04 03:22:22;;;;;;;11.63;4.93;;;1.60;99.90;;;;;;4950537;29;20058;-59
2021/12/04 03:24:48;;;;;;;10.88;4.65;;;1.60;99.90;;;;;;4939201;29;20035;-59
2021/12/04 03:27:16;;;;;;;16.10;4.75;;;1.60;99.90;;;;;;4950964;29;20038;-59
2021/12/04 03:29:48;;;;;;;12.07;4.93;;;1.60;99.90;;;;;;4949425;29;20035;-59
2021/12/04 03:42:38;;;;;;;17.10;6.50;;;1.40;99.90;;;;;;4949930;29;20442;-59
2021/12/04 03:45:07;;;;;;;14.75;6.15;;;1.40;99.90;;;;;;4950959;29;20039;-59
2021/12/04 03:47:32;;;;;;;15.57;6.00;;;1.40;99.90;;;;;;4949437;29;20080;-59
2021/12/04 03:49:58;;;;;;;16.40;6.85;;;1.40;99.90;;;;;;4950057;29;20039;-59
2021/12/04 03:52:24;;;;;;;17.00;5.93;;;1.40;99.90;;;;;;4950324;29;20464;-58
2021/12/04 03:54:50;;;;;;;13.45;5.78;;;1.40;99.90;;;;;;4931826;29;20046;-59
2021/12/04 03:57:16;;;;;;;14.93;5.80;;;1.40;99.90;;;;;;4950141;29;20676;-59
2021/12/04 03:59:46;;;;;;;13.38;5.53;;;1.40;99.90;;;;;;4950079;29;20031;-59
2021/12/04 04:02:13;;;;;;;15.68;6.20;;;1.40;99.90;;;;;;4949792;29;20039;-59
2021/12/04 04:04:39;;;;;;;14.90;6.15;;;1.40;99.90;;;;;;4948963;29;20069;-59
2021/12/04 04:07:06;;;;;;;14.98;5.70;;;1.40;99.90;;;;;;4950839;29;20031;-59
2021/12/04 04:09:32;;;;;;;14.18;5.45;;;1.50;99.90;;;;;;4949581;29;20499;-59
2021/12/04 04:11:58;;;;;;;17.10;6.20;;;1.50;99.90;;;;;;4949573;29;20028;-59
2021/12/04 04:14:25;;;;;;;15.82;5.65;;;1.50;99.90;;;;;;4949342;29;20476;-59
2021/12/04 04:16:53;;;;;;;15.43;5.90;;;1.40;99.90;;;;;;4949220;29;20582;-59
2021/12/04 04:19:20;;;;;;;13.85;5.50;;;1.40;99.90;;;;;;4950275;29;20031;-59
2021/12/04 04:21:46;;;;;;;13.40;5.32;;;1.50;99.90;;;;;;4948206;29;20094;-59
2021/12/04 04:24:14;;;;;;;16.65;5.90;;;1.50;99.90;;;;;;4950819;29;20476;-59
2021/12/04 04:26:40;;;;;;;12.95;5.75;;;1.50;99.90;;;;;;4949229;28;20055;-59
2021/12/04 04:29:07;;;;;;;14.50;5.57;;;1.50;99.90;;;;;;4950953;29;20027;-59
2021/12/04 04:31:35;;;;;;;12.57;5.47;;;1.50;99.90;;;;;;4953882;29;20042;-59
2021/12/04 04:34:04;;;;;;;13.18;4.93;;;1.50;99.90;;;;;;4953456;29;20110;-59
2021/12/04 05:13:35;;;;;;;10.43;4.60;;;1.40;99.90;;;;;;4953459;29;20031;-59
2021/12/04 05:16:11;;;;;;;9.48;4.68;;;1.40;99.90;;;;;;4951778;29;20127;-59
2021/12/04 05:18:41;;;;;;;10.80;4.43;;;1.40;99.90;;;;;;4950219;29;20034;-60
2021/12/04 05:21:11;;;;;;;9.02;4.10;;;1.50;99.90;;;;;;4949585;29;20054;-59
2021/12/04 05:23:49;;;;;;;14.98;6.68;;;1.50;99.90;;;;;;4952847;29;20476;-59
2021/12/04 05:26:19;;;;;;;15.05;5.43;;;1.40;99.90;;;;;;4950812;28;20047;-59
2021/12/04 05:28:46;;;;;;;11.63;5.20;;;1.40;99.90;;;;;;4951330;29;20032;-59
2021/12/04 05:31:12;;;;;;;11.75;5.20;;;1.40;99.90;;;;;;4955614;28;20035;-59
2021/12/04 05:33:39;;;;;;;9.38;4.55;;;1.40;99.90;;;;;;4933959;29;20073;-59
2021/12/04 05:36:05;;;;;;;11.00;4.60;;;1.50;99.90;;;;;;4951325;28;20039;-59
2021/12/04 05:38:31;;;;;;;12.70;5.25;;;1.50;99.90;;;;;;4952780;29;20438;-59
2021/12/04 05:40:57;;;;;;;13.27;5.72;;;1.50;99.90;;;;;;4951592;28;20107;-59
2021/12/04 05:43:24;;;;;;;15.48;6.32;;;1.60;99.90;;;;;;4952221;29;20031;-59
2021/12/04 05:45:56;;;;;;;15.00;5.95;;;1.60;99.90;;;;;;4951430;29;20101;-60
2021/12/04 05:49:08;;;;;;;13.05;5.20;;;1.60;99.90;;;;;;4952545;29;20031;-60
2021/12/04 05:54:18;;;;;;;12.90;5.32;;;1.50;99.90;;;;;;4945762;28;20035;-60
2021/12/04 05:56:42;;;;;;;15.52;7.50;;;1.50;99.90;;;;;;4944270;29;20040;-60
2021/12/04 05:59:08;;;;;;;15.98;6.68;;;1.50;99.90;;;;;;4951018;29;20361;-60
2021/12/04 06:01:34;;;;;;;14.23;6.45;;;1.60;99.90;;;;;;4951895;29;20041;-59
2021/12/04 06:03:59;;;;;;;14.02;5.32;;;1.60;99.90;;;;;;4951682;29;20023;-60
2021/12/04 06:06:25;;;;;;;10.20;4.90;;;1.60;99.90;;;;;;4951915;28;20365;-59
2021/12/04 06:08:51;;;;;;;8.90;4.25;;;1.60;99.90;;;;;;4951708;29;20039;-60
2021/12/04 06:11:17;;;;;;;8.10;4.15;;;1.60;99.90;;;;;;4952573;29;20077;-59
2021/12/04 06:13:42;;;;;;;12.45;5.50;;;1.60;99.90;;;;;;4946241;29;20752;-60
2021/12/04 06:16:08;;;;;;;13.63;6.13;;;1.70;99.90;;;;;;4952020;29;20039;-59
2021/12/04 06:18:34;;;;;;;12.65;5.03;;;1.50;99.90;;;;;;4950884;29;20024;-60
2021/12/04 06:23:44;;;;;;;21.30;6.45;;;1.50;99.90;;;;;;4951195;29;20057;-60
2021/12/04 06:26:10;;;;;;;34.15;6.20;;;1.60;99.90;;;;;;4951159;29;20051;-60
2021/12/04 06:28:37;;;;;;;17.13;5.93;;;1.50;99.90;;;;;;4951283;29;20252;-59
2021/12/04 06:31:03;;;;;;;18.27;6.78;;;1.40;99.90;;;;;;4950499;29;20142;-59
2021/12/04 06:33:28;;;;;;;20.13;7.85;;;1.40;99.90;;;;;;4951928;29;20114;-59
2021/12/04 06:35:54;;;;;;;20.20;9.63;;;1.40;99.90;;;;;;4953820;28;20042;-60
2021/12/04 06:38:20;;;;;;;34.58;14.02;;;1.40;99.90;;;;;;4951653;29;20440;-60
2021/12/04 06:40:47;;;;;;;40.25;15.77;;;1.50;99.90;;;;;;4946669;29;20508;-60
2021/12/04 06:43:13;;;;;;;31.67;13.52;;;1.50;99.90;;;;;;4951092;29;20146;-60
2021/12/04 06:45:43;;;;;;;24.40;9.20;;;1.50;99.90;;;;;;4951390;29;20042;-60
2021/12/04 06:48:20;;;;;;;21.08;8.77;;;1.50;99.90;;;;;;4951230;28;20031;-60
2021/12/04 06:54:01;;;;;;;19.98;8.30;;;1.50;99.90;;;;;;4950480;28;20093;-60
2021/12/04 06:56:02;;;;;;;20.13;8.48;;;1.50;99.90;;;;;;4948836;28;20128;-60
2021/12/04 06:58:28;;;;;;;21.35;8.98;;;1.60;99.90;;;;;;4953334;28;20476;-60
2021/12/04 07:00:55;;;;;;;20.23;7.93;;;1.60;99.90;;;;;;4942998;29;20042;-60
2021/12/04 07:03:21;;;;;;;18.25;8.40;;;1.50;99.90;;;;;;4951146;29;20498;-60
2021/12/04 07:05:47;;;;;;;19.83;8.10;;;1.60;99.90;;;;;;4951406;29;20074;-60
2021/12/04 07:08:14;;;;;;;19.52;7.88;;;1.50;99.90;;;;;;4950160;29;20031;-60
2021/12/04 07:10:40;;;;;;;18.20;7.63;;;1.60;99.90;;;;;;4950908;29;20079;-60
2021/12/04 07:13:07;;;;;;;18.38;8.18;;;1.50;99.90;;;;;;4950208;29;20031;-60
2021/12/04 07:15:34;;;;;;;18.15;7.43;;;1.60;99.90;;;;;;4951017;29;20158;-60
2021/12/04 07:18:02;;;;;;;17.90;7.15;;;1.60;99.90;;;;;;4950383;29;20035;-60
2021/12/04 07:20:31;;;;;;;8.80;4.15;;;1.50;99.90;;;;;;4950220;29;20837;-60
2021/12/04 07:22:59;;;;;;;20.73;8.00;;;1.60;99.90;;;;;;4950253;29;20038;-60
2021/12/04 07:25:25;;;;;;;15.75;6.80;;;1.70;99.90;;;;;;4950535;29;20043;-60
2021/12/04 07:27:51;;;;;;;17.92;6.97;;;1.60;99.90;;;;;;4950278;29;20031;-60
2021/12/04 07:30:18;;;;;;;18.30;7.22;;;1.50;99.90;;;;;;4951524;29;20035;-60
2021/12/04 07:32:44;;;;;;;22.40;8.88;;;1.50;99.90;;;;;;4949524;28;20039;-60
2021/12/04 07:35:10;;;;;;;24.83;7.00;;;1.50;99.90;;;;;;4955245;28;20030;-60
2021/12/04 07:37:36;;;;;;;17.48;7.10;;;1.50;99.90;;;;;;4950872;29;20527;-60
2021/12/04 07:40:03;;;;;;;18.50;7.00;;;1.50;99.90;;;;;;4950374;28;20031;-60
2021/12/04 07:42:29;;;;;;;27.50;6.78;;;1.50;99.90;;;;;;4950421;29;20027;-60
2021/12/04 07:44:54;;;;;;;43.22;7.75;;;1.50;99.90;;;;;;4949958;29;20034;-60
2021/12/04 07:47:20;;;;;;;18.02;7.25;;;1.60;99.90;;;;;;4950081;29;20035;-60
2021/12/04 07:49:46;;;;;;;22.33;7.43;;;1.60;99.90;;;;;;4949176;29;20023;-60
2021/12/04 07:52:12;;;;;;;66.78;8.77;;;1.50;99.90;;;;;;4949777;29;20157;-60
2021/12/04 07:54:38;;;;;;;65.30;8.52;;;1.50;99.90;;;;;;4950111;29;20051;-59
2021/12/04 07:57:04;;;;;;;61.22;8.73;;;1.50;99.90;;;;;;4950050;29;20070;-59
2021/12/04 07:59:30;;;;;;;16.23;6.25;;;1.60;99.90;;;;;;4950720;29;20036;-60
2021/12/04 08:01:57;;;;;;;17.58;7.05;;;1.60;99.90;;;;;;4949973;28;20435;-59
2021/12/04 08:04:23;;;;;;;16.92;6.72;;;1.60;99.90;;;;;;4949382;28;20114;-60
2021/12/04 08:06:50;;;;;;;16.85;6.90;;;1.60;99.90;;;;;;4952735;29;20031;-60
2021/12/04 08:09:17;;;;;;;24.02;7.85;;;1.60;99.90;;;;;;4953272;29;20035;-60
2021/12/04 08:11:42;;;;;;;16.77;6.75;;;1.60;99.90;;;;;;4953259;29;20035;-59
2021/12/04 08:14:08;;;;;;;17.77;7.00;;;1.60;99.90;;;;;;4952146;29;20803;-60
2021/12/04 08:16:34;;;;;;;16.63;7.40;;;1.70;99.90;;;;;;4951634;29;20039;-59
2021/12/04 08:19:00;;;;;;;15.38;7.22;;;1.70;99.90;;;;;;4952582;29;20027;-59
2021/12/04 08:21:26;;;;;;;17.40;7.22;;;1.70;99.90;;;;;;4954062;29;20023;-59
2021/12/04 08:23:52;;;;;;;20.63;8.18;;;1.80;99.90;;;;;;4949842;29;20023;-60
2021/12/04 08:26:19;;;;;;;19.50;8.07;;;1.80;99.90;;;;;;4952454;28;20094;-60
2021/12/04 08:28:45;;;;;;;19.05;7.70;;;1.80;99.90;;;;;;4953111;29;20464;-60
2021/12/04 08:31:11;;;;;;;20.92;8.10;;;1.80;99.90;;;;;;4953370;29;20476;-60
2021/12/04 08:33:36;;;;;;;20.48;9.27;;;1.80;99.90;;;;;;4953356;29;20039;-60
2021/12/04 08:36:04;;;;;;;21.98;8.85;;;1.70;99.90;;;;;;4952179;29;20514;-60
2021/12/04 08:38:32;;;;;;;19.65;9.60;;;1.80;99.90;;;;;;4955816;28;20043;-60
2021/12/04 08:40:58;;;;;;;20.92;8.95;;;1.90;99.90;;;;;;4953043;29;20586;-60
2021/12/04 08:43:24;;;;;;;21.90;8.85;;;1.90;99.90;;;;;;4952858;29;20031;-60
2021/12/04 08:45:50;;;;;;;22.88;9.60;;;1.90;99.90;;;;;;4953324;29;20490;-60
2021/12/04 08:48:16;;;;;;;23.65;10.40;;;2.00;99.90;;;;;;4953382;29;20130;-59
2021/12/04 08:50:42;;;;;;;22.83;9.57;;;2.00;99.90;;;;;;4953510;29;20062;-59
2021/12/04 08:53:09;;;;;;;26.38;10.75;;;2.10;99.90;;;;;;4952446;29;20118;-59
2021/12/04 08:55:38;;;;;;;31.23;14.27;;;2.10;99.90;;;;;;4952227;28;20043;-59
2021/12/04 08:58:06;;;;;;;33.97;14.68;;;2.10;99.90;;;;;;4949521;29;20114;-59
2021/12/04 09:00:41;;;;;;;32.60;15.38;;;2.10;99.90;;;;;;4952827;29;20096;-59
2021/12/04 09:03:08;;;;;;;39.17;16.17;;;2.20;99.90;;;;;;4952022;29;20031;-59
2021/12/04 09:05:37;;;;;;;40.80;17.13;;;2.20;99.90;;;;;;4936885;29;20039;-59
2021/12/04 09:08:04;;;;;;;32.33;12.63;;;2.30;99.90;;;;;;4952992;29;20042;-59
2021/12/04 09:10:30;;;;;;;29.30;11.32;;;2.30;99.90;;;;;;4951585;29;20031;-59
2021/12/04 09:12:56;;;;;;;69.93;11.13;;;2.30;99.90;;;;;;4950725;29;20027;-60
2021/12/04 09:15:26;;;;;;;30.60;9.90;;;2.30;99.90;;;;;;4954792;28;20514;-59
2021/12/04 09:17:52;;;;;;;28.25;9.63;;;2.30;99.90;;;;;;4951828;28;20119;-60
2021/12/04 09:20:18;;;;;;;31.45;12.50;;;2.30;99.90;;;;;;4951898;29;20043;-60
2021/12/04 09:22:47;;;;;;;190.73;21.40;;;2.30;99.90;;;;;;4952249;29;20050;-60
2021/12/04 09:25:22;;;;;;;33.38;12.63;;;2.20;99.90;;;;;;4950749;29;20098;-59
2021/12/04 09:33:42;;;;;;;90.97;18.38;;;2.30;99.90;;;;;;4951483;29;20514;-59
2021/12/04 10:03:44;;;;;;;26.95;12.88;;;3.00;99.90;;;;;;4952046;29;20034;-60
2021/12/04 10:11:10;;;;;;;;;;;3.10;99.90;;;;;;4950966;29;20043;-59
2021/12/04 10:33:53;;;;;;;40.88;17.75;;;4.20;99.90;;;;;;4949482;29;20122;-59
2021/12/04 10:36:29;;;;;;;177.45;22.42;;;4.30;99.90;;;;;;4950881;29;20036;-59
2021/12/04 10:38:56;;;;;;;249.27;21.25;;;4.40;99.90;;;;;;4951617;29;20039;-60
2021/12/04 10:41:34;;;;;;;86.18;14.32;;;4.50;99.90;;;;;;4951479;29;20034;-59
2021/12/04 10:44:29;;;;;;;43.45;14.30;;;4.40;99.90;;;;;;4950839;28;20034;-60
2021/12/04 10:47:07;;;;;;;83.50;14.40;;;4.40;99.90;;;;;;4934945;29;20130;-60
2021/12/04 10:55:23;;;;;;;30.20;14.40;;;4.50;99.90;;;;;;4949883;29;20496;-60
2021/12/04 11:01:02;;;;;;;71.75;26.58;;;4.70;99.90;;;;;;4951290;29;20477;-60
2021/12/04 11:41:11;;;;;;;27.90;13.65;;;5.60;99.90;;;;;;4950643;28;20404;-60
2021/12/04 11:46:44;;;;;;;20.92;10.27;;;5.90;99.90;;;;;;4935762;29;20089;-60
2021/12/04 11:49:13;;;;;;;78.65;30.02;;;5.90;99.90;;;;;;4950490;29;20097;-60
2021/12/04 11:52:00;;;;;;;93.63;33.08;;;6.00;99.90;;;;;;4950705;29;20483;-60
2021/12/04 11:54:31;;;;;;;103.60;37.50;;;6.00;99.90;;;;;;4950623;29;20476;-60
2021/12/04 11:57:07;;;;;;;82.38;31.30;;;5.90;99.90;;;;;;4951016;29;20035;-60
2021/12/04 11:59:35;;;;;;;70.25;32.70;;;6.00;99.90;;;;;;4950832;29;20094;-60
2021/12/04 12:02:03;;;;;;;59.33;26.10;;;5.90;99.90;;;;;;4949527;29;20094;-60
2021/12/04 12:04:46;;;;;;;42.20;20.35;;;6.00;99.90;;;;;;4950354;29;20038;-60
2021/12/04 12:07:15;;;;;;;125.68;30.75;;;6.10;99.90;;;;;;4948430;29;20027;-60
2021/12/04 12:09:41;;;;;;;124.93;31.25;;;6.10;99.90;;;;;;4948597;28;20110;-60
2021/12/04 12:12:13;;;;;;;67.80;27.17;;;6.00;99.90;;;;;;4947762;29;20035;-60
2021/12/04 12:14:50;;;;;;;66.22;28.63;;;6.00;99.90;;;;;;4944885;28;20481;-60
2021/12/04 12:17:38;;;;;;;99.55;29.02;;;5.90;99.90;;;;;;4948705;29;20024;-60
2021/12/04 12:20:09;;;;;;;31.40;14.80;;;5.90;99.90;;;;;;4946200;29;20035;-60
2021/12/04 12:26:12;;;;;;;7.88;3.92;;;6.10;99.90;;;;;;4948206;29;20118;-60
2021/12/04 12:33:46;;;;;;;27.42;13.15;;;6.40;99.90;;;;;;4949037;29;20602;-60
2021/12/04 12:36:17;;;;;;;23.90;12.23;;;6.40;99.90;;;;;;4948585;29;20027;-60
2021/12/04 12:38:48;;;;;;;15.60;8.07;;;6.40;99.90;;;;;;4950362;29;20038;-60
2021/12/04 12:41:41;;;;;;;16.70;9.35;;;6.50;99.90;;;;;;4948995;29;20035;-60
2021/12/04 12:44:07;;;;;;;16.35;8.05;;;6.50;99.90;;;;;;4948923;29;20043;-60
2021/12/04 12:46:33;;;;;;;12.90;6.70;;;6.60;99.90;;;;;;4950189;29;20095;-60
2021/12/04 12:48:58;;;;;;;13.23;6.68;;;6.70;99.90;;;;;;4949805;29;20031;-60
2021/12/04 12:51:35;;;;;;;20.00;9.48;;;6.70;99.90;;;;;;4948962;28;20214;-60
2021/12/04 12:54:05;;;;;;;16.42;8.55;;;6.70;99.90;;;;;;4951859;29;20062;-60
2021/12/04 12:56:34;;;;;;;19.58;9.80;;;6.80;99.90;;;;;;4951942;29;20482;-60
2021/12/04 12:59:12;;;;;;;30.95;14.77;;;6.80;99.90;;;;;;4950670;28;20492;-60
2021/12/04 13:12:49;;;;;;;19.05;10.35;;;7.00;99.90;;;;;;4951979;29;20038;-62
2021/12/04 13:15:47;;;;;;;23.65;11.32;;;7.00;99.90;;;;;;4949122;29;20630;-61
2021/12/04 13:18:17;;;;;;;9.52;4.97;;;7.10;99.90;;;;;;4920795;29;20476;-61
2021/12/04 13:20:44;;;;;;;13.90;7.32;;;7.10;99.90;;;;;;4953295;29;20057;-61
2021/12/04 13:23:12;;;;;;;8.00;4.22;;;7.20;99.90;;;;;;4950413;29;20042;-62
2021/12/04 13:25:47;;;;;;;5.43;2.35;;;7.30;99.90;;;;;;4950038;29;20054;-61
2021/12/04 13:28:19;;;;;;;4.28;2.40;;;7.40;99.90;;;;;;4949551;29;20039;-61
2021/12/04 13:30:45;;;;;;;4.80;2.53;;;7.50;99.90;;;;;;4951735;29;20054;-61
2021/12/04 13:33:11;;;;;;;9.00;3.20;;;7.50;99.90;;;;;;4952495;29;20074;-61
2021/12/04 13:35:36;;;;;;;5.60;2.40;;;7.60;99.90;;;;;;4952493;28;20844;-61
2021/12/04 13:38:04;;;;;;;2.20;1.10;;;7.60;99.90;;;;;;4952966;29;20035;-61
2021/12/04 13:40:30;;;;;;;2.75;1.17;;;7.60;99.90;;;;;;4952449;28;20122;-61
2021/12/04 13:42:56;;;;;;;1.98;1.10;;;7.80;99.90;;;;;;4952477;29;20027;-62
2021/12/04 13:45:21;;;;;;;2.45;1.08;;;7.90;99.90;;;;;;4952903;29;20353;-61
2021/12/04 13:47:54;;;;;;;4.20;1.10;;;7.90;99.90;;;;;;4953196;29;20086;-62
2021/12/04 13:51:07;;;;;;;2.67;1.27;;;7.90;99.90;;;;;;4952027;29;20090;-61
2021/12/04 13:53:20;;;;;;;2.05;0.90;;;7.90;99.90;;;;;;4947312;29;20050;-61
2021/12/04 13:55:53;;;;;;;2.53;1.13;;;7.90;99.90;;;;;;4952988;29;20111;-62
2021/12/04 13:58:19;;;;;;;2.35;1.15;;;7.90;99.90;;;;;;4952476;29;20066;-62
2021/12/04 14:00:45;;;;;;;5.15;1.08;;;7.90;99.90;;;;;;4952583;29;20062;-62
2021/12/04 14:03:12;;;;;;;1.98;0.90;;;7.90;99.90;;;;;;4951774;28;20059;-62
2021/12/04 14:05:38;;;;;;;2.05;1.02;;;7.90;99.90;;;;;;4952881;29;20511;-62
2021/12/04 14:08:06;;;;;;;2.30;0.93;;;7.80;99.90;;;;;;4951619;29;20042;-62
2021/12/04 14:10:42;;;;;;;3.67;1.00;;;7.90;99.90;;;;;;4952052;29;20031;-62
2021/12/04 14:13:09;;;;;;;1.83;0.60;;;8.00;99.90;;;;;;4952603;29;20086;-62
2021/12/04 14:15:35;;;;;;;3.13;0.90;;;8.00;99.90;;;;;;4950745;29;20496;-61
2021/12/04 14:18:06;;;;;;;1.85;0.60;;;8.00;99.90;;;;;;4952608;29;20041;-61
2021/12/04 14:20:33;;;;;;;1.83;0.68;;;7.90;99.90;;;;;;4951425;29;20403;-62
2021/12/04 14:22:59;;;;;;;1.75;0.80;;;8.00;99.90;;;;;;4939550;29;20047;-62
2021/12/04 14:25:27;;;;;;;1.35;0.80;;;7.90;99.90;;;;;;4943974;29;20047;-61
2021/12/04 14:27:54;;;;;;;2.28;0.80;;;8.00;99.90;;;;;;4952582;29;20050;-61
2021/12/04 14:30:27;;;;;;;1.45;0.80;;;8.00;99.90;;;;;;4934688;29;20031;-61
2021/12/04 14:32:56;;;;;;;2.65;1.00;;;8.00;99.90;;;;;;4951333;29;20039;-62
2021/12/04 14:35:27;;;;;;;1.45;0.65;;;7.90;99.90;;;;;;4933940;29;20044;-62
2021/12/04 14:37:56;;;;;;;3.03;0.80;;;8.00;99.90;;;;;;4951968;29;20035;-61
2021/12/04 14:40:35;;;;;;;1.23;0.65;;;8.00;99.90;;;;;;4946809;29;20093;-62
2021/12/04 14:43:04;;;;;;;1.67;0.70;;;8.00;99.90;;;;;;4950085;29;20487;-61
2021/12/04 14:45:33;;;;;;;1.50;0.90;;;8.10;99.90;;;;;;4950344;28;20487;-62
2021/12/04 14:48:19;;;;;;;1.42;0.60;;;8.00;99.90;;;;;;4945708;29;20063;-62
2021/12/04 14:50:50;;;;;;;0.90;0.45;;;8.10;99.90;;;;;;4949317;28;20028;-61
2021/12/04 14:53:19;;;;;;;2.38;0.60;;;8.00;99.90;;;;;;4949858;29;20030;-60
2021/12/04 14:55:48;;;;;;;2.00;0.63;;;8.10;99.90;;;;;;4949526;29;20122;-60
2021/12/04 14:58:23;;;;;;;1.85;0.70;;;8.00;99.90;;;;;;4948536;29;20039;-60
2021/12/04 15:00:56;;;;;;;1.98;0.60;;;8.00;99.90;;;;;;4950323;29;20360;-60
2021/12/04 15:03:36;;;;;;;5.43;0.90;;;7.90;99.90;;;;;;4932995;29;20034;-60
2021/12/04 15:06:04;;;;;;;1.52;0.77;;;7.90;99.90;;;;;;4937229;29;20040;-60
2021/12/04 15:08:36;;;;;;;2.30;0.80;;;7.80;99.90;;;;;;4949795;29;20114;-60
2021/12/04 15:11:14;;;;;;;1.67;0.70;;;7.80;99.90;;;;;;4951535;29;20514;-60
2021/12/04 15:13:53;;;;;;;0.82;0.40;;;7.80;99.90;;;;;;4949258;28;20122;-60
2021/12/04 15:16:37;;;;;;;1.70;0.70;;;7.80;99.90;;;;;;4950525;29;20113;-60
2021/12/04 15:19:26;;;;;;;2.05;0.50;;;7.80;99.90;;;;;;4951171;29;20031;-60
2021/12/04 15:21:57;;;;;;;1.58;0.63;;;7.80;99.90;;;;;;4950221;29;20353;-60
2021/12/04 15:24:28;;;;;;;1.80;0.63;;;7.70;99.90;;;;;;4947170;29;20470;-60
2021/12/04 15:26:58;;;;;;;3.03;0.57;;;7.70;99.90;;;;;;4950250;29;20062;-60
2021/12/04 15:29:28;;;;;;;0.93;0.47;;;7.60;99.90;;;;;;4950192;29;20039;-60
2021/12/04 15:31:56;;;;;;;3.13;0.50;;;7.70;99.90;;;;;;4950563;29;20055;-62
2021/12/04 15:34:43;;;;;;;0.80;0.40;;;7.70;99.90;;;;;;4947700;29;20039;-60
2021/12/04 15:37:09;;;;;;;1.38;0.47;;;7.70;99.90;;;;;;4950020;29;20082;-60
2021/12/04 15:39:46;;;;;;;0.45;0.20;;;7.70;99.90;;;;;;4949197;29;20035;-60
2021/12/04 15:42:28;;;;;;;1.02;0.70;;;7.70;99.90;;;;;;4952765;28;20042;-60
2021/12/04 15:53:22;;;;;;;1.60;0.98;;;7.70;99.90;;;;;;4946781;28;20082;-61
2021/12/04 15:55:52;;;;;;;2.60;1.25;;;7.60;99.90;;;;;;4950931;29;20047;-60
2021/12/04 15:58:21;;;;;;;3.30;1.77;;;7.60;99.90;;;;;;4949065;29;20037;-60
2021/12/04 16:00:53;;;;;;;2.47;1.50;;;7.60;99.90;;;;;;4949102;29;20032;-60
2021/12/04 16:03:21;;;;;;;5.88;2.00;;;7.60;99.90;;;;;;4948403;29;20035;-60
2021/12/04 16:05:53;;;;;;;3.72;2.00;;;7.70;99.90;;;;;;4947606;29;20027;-60
2021/12/04 16:08:30;;;;;;;5.07;2.45;;;7.60;99.90;;;;;;4949614;29;20027;-61
2021/12/04 16:11:01;;;;;;;3.03;1.60;;;7.60;99.90;;;;;;4949996;29;20031;-60
2021/12/04 16:13:30;;;;;;;2.92;1.75;;;7.60;99.90;;;;;;4949132;29;20496;-60
2021/12/04 16:15:58;;;;;;;3.28;1.60;;;7.60;99.90;;;;;;4949964;29;20095;-60
2021/12/04 16:18:28;;;;;;;3.83;1.25;;;7.60;99.90;;;;;;4947957;29;20122;-60
2021/12/04 16:20:55;;;;;;;2.03;1.08;;;7.50;99.90;;;;;;4945214;29;20042;-60